Latest Coastal Weather Observations for Proserpine

IDQ60701

Issued at 12:12 am EST Friday 6 May 2016 (issued every 10 minutes, with the page automatically refreshed every 10 minutes)

About coastal observations | Map of coastal stations | Coastal observations for QLD | Marine services | Other Formats
Station Details ID: 033247 Name: PROSERPINE AIRPORT Lat: -20.49 Lon: 148.56 Height: 19.7 m
Data from the previous 72 hours. | See also: Recent months at Proserpine
Date/Time
EST
Temp

°C
Wind Pressure Rain
since 9am
mm
Weather Cloud Vis
km
Sea
Height
m
Swell
Dir
 
Speed
knots
Gust
knots
hPa Trend Height
m
Period
s
Dir
06/12:00am 22.6 SSW 6 7 1016.3 - 2.6 Recent precip. Cloudy 10 - - - -
 
Date/Time
EST
Temp

°C
Wind Pressure Rain
since 9am
mm
Weather Cloud Vis
km
Sea
Height
m
Swell
Dir
 
Speed
knots
Gust
knots
hPa Trend Height
m
Period
s
Dir
05/11:30pm 22.9 CALM 0 0 1016.6 - 2.6 - Partly cloudy 10 - - - -
05/11:14pm 22.9 ESE 3 5 1016.8 - 2.6 - Partly cloudy 10 - - - -
05/11:00pm 22.9 SE 6 11 1017.0 - 2.0 - Partly cloudy 10 - - - -
05/10:59pm 22.9 SE 6 11 1017.0 - 2.0 - Partly cloudy 10 - - - -
05/10:49pm 22.9 ESE 5 7 1017.1 - 1.8 - Partly cloudy 6 - - - -
05/10:30pm 23.1 SSE 6 10 1017.2 - 0.8 - Partly cloudy 10 - - - -
05/10:08pm 23.2 SSE 6 9 1017.3 - 0.4 - Partly cloudy 10 - - - -
05/10:00pm 23.2 SSE 6 8 1017.3 - 0.4 - Partly cloudy 10 - - - -
05/09:30pm 23.2 S 6 8 1017.2 - 0.0 - Partly cloudy 10 - - - -
05/09:00pm 23.3 S 6 7 1017.2 - 0.0 - Cloudy 10 - - - -
05/08:30pm 22.6 SSW 6 8 1017.1 - 0.0 - Partly cloudy 10 - - - -
05/08:00pm 23.2 SSW 4 5 1016.9 - 0.0 - Partly cloudy 10 - - - -
05/07:30pm 23.8 SE 6 7 1016.6 - 0.0 - - 10 - - - -
05/07:00pm 24.0 SE 7 8 1016.1 - 0.0 - - 10 - - - -
05/06:30pm 24.2 SE 6 8 1015.8 - 0.0 - Partly cloudy 10 - - - -
05/06:00pm 24.4 SE 8 10 1015.4 - 0.0 - Partly cloudy 10 - - - -
05/05:30pm 24.9 ESE 9 13 1015.2 - 0.0 - Partly cloudy 10 - - - -
05/05:00pm 25.3 ESE 9 13 1014.8 - 0.0 - Partly cloudy 10 - - - -
05/04:30pm 25.3 ESE 9 12 1014.3 - 0.0 - - 10 - - - -
05/04:00pm 25.8 ESE 11 15 1014.5 - 0.0 - - 10 - - - -
05/03:30pm 26.7 ESE 9 13 1014.3 - 0.0 - - 10 - - - -
05/03:00pm 27.3 E 9 12 1014.3 - 0.0 - Partly cloudy 10 - - - -
05/02:30pm 27.4 ESE 9 15 1014.5 - 0.0 - - 10 - - - -
05/02:00pm 27.8 ESE 12 17 1014.4 - 0.0 - Partly cloudy 10 - - - -
05/01:30pm 27.6 ESE 10 14 1014.7 - 0.0 - - 10 - - - -
05/01:00pm 28.0 ESE 10 15 1015.1 - 0.0 - Partly cloudy 10 - - - -
05/12:30pm 28.0 ESE 10 14 1015.6 - 0.0 - Partly cloudy 10 - - - -
05/12:00pm 28.4 ESE 9 13 1016.1 - 0.0 - - 10 - - - -
05/11:30am 28.0 ESE 9 13 1016.5 - 0.0 - - 10 - - - -
05/11:00am 27.6 E 9 12 1017.0 - 0.0 - - 10 - - - -
05/10:30am 27.3 ESE 7 12 1017.4 - 0.0 - - 10 - - - -
05/10:00am 26.7 ESE 9 11 1017.7 - 0.0 - Partly cloudy 10 - - - -
05/09:30am 26.2 ESE 8 11 1017.7 - 0.0 - Partly cloudy 10 - - - -
05/09:00am 25.8 ESE 5 7 1017.7 - 2.4 - - 10 - - - -
05/08:30am 24.6 SSE 6 7 1017.6 - 2.4 - - 10 - - - -
05/08:00am 23.3 SE 1 4 1017.4 - 2.4 - Partly cloudy 10 - - - -
05/07:30am 21.8 SSW 3 5 1017.1 - 2.4 - - 10 - - - -
05/07:00am 20.7 SSW 5 6 1016.6 - 2.4 - Partly cloudy 10 - - - -
05/06:30am 20.4 SSW 5 6 1016.2 - 2.4 - Partly cloudy 10 - - - -
05/06:00am 20.4 SSW 3 5 1016.0 - 2.4 - Mostly clear 10 - - - -
05/05:30am 20.5 SSW 4 5 1015.8 - 2.4 - - 10 - - - -
05/05:00am 20.6 CALM 0 0 1015.6 - 2.4 - - 10 - - - -
05/04:30am 20.6 CALM 0 0 1015.3 - 2.4 - - 10 - - - -
05/04:08am 20.8 CALM 0 0 1015.3 - 2.4 - Partly cloudy 10 - - - -
05/04:00am 20.9 CALM 0 0 1015.3 - 2.4 - Partly cloudy 7 - - - -
05/03:49am 20.9 CALM 0 0 1015.2 - 2.4 - Partly cloudy 6 - - - -
05/03:33am 21.0 CALM 0 0 1015.2 - 2.4 - Partly cloudy 10 - - - -
05/03:30am 21.1 CALM 0 0 1015.2 - 2.4 - Partly cloudy 10 - - - -
05/03:00am 21.0 CALM 0 0 1015.0 - 2.4 - - 3 - - - -
05/02:54am 21.0 CALM 0 0 1014.9 - 2.4 - - 4 - - - -
05/02:30am 21.4 CALM 0 0 1015.0 - 2.4 - - 10 - - - -
05/02:00am 21.6 S 3 4 1015.0 - 2.4 - - 10 - - - -
05/01:30am 21.8 SSW 3 4 1015.3 - 2.4 - - 10 - - - -
05/01:00am 22.2 S 4 4 1015.5 - 2.4 - - 10 - - - -
05/12:30am 22.2 CALM 0 0 1015.7 - 2.4 - - 10 - - - -
05/12:00am 22.2 CALM 0 0 1015.9 - 2.4 - Cloudy 10 - - - -
 
Date/Time
EST
Temp

°C
Wind Pressure Rain
since 9am
mm
Weather Cloud Vis
km
Sea
Height
m
Swell
Dir
 
Speed
knots
Gust
knots
hPa Trend Height
m
Period
s
Dir
04/11:30pm 22.3 CALM 0 0 1016.2 - 2.4 - - 10 - - - -
04/11:00pm 22.3 CALM 0 0 1016.3 - 2.4 - - 10 - - - -
04/10:30pm 22.3 W 4 5 1016.6 - 2.4 - - 10 - - - -
04/10:00pm 22.5 SW 1 3 1016.8 - 2.4 - Partly cloudy 10 - - - -
04/09:30pm 22.6 SSE 4 5 1016.8 - 2.4 - Cloudy 10 - - - -
04/09:00pm 22.6 S 5 7 1017.0 - 2.4 Recent precip. Cloudy 10 - - - -
04/08:30pm 22.6 CALM 0 3 1016.9 - 2.4 - Cloudy 10 - - - -
04/08:00pm 22.7 SW 3 4 1016.6 - 2.2 - Partly cloudy 10 - - - -
04/07:30pm 22.8 SSW 3 4 1016.2 - 1.8 - Partly cloudy 10 - - - -
04/07:00pm 22.9 WNW 5 6 1016.1 - 1.6 - Cloudy 10 - - - -
04/06:30pm 23.0 WSW 3 4 1015.5 - 1.6 - Partly cloudy 10 - - - -
04/06:00pm 23.0 SW 5 6 1015.4 - 1.6 Recent precip. Mostly cloudy 10 - - - -
04/05:30pm 23.1 SSW 4 6 1015.0 - 1.0 - Partly cloudy 10 - - - -
04/05:00pm 23.4 SSE 8 11 1014.6 - 0.4 - Partly cloudy 10 - - - -
04/04:30pm 23.8 SSE 9 15 1014.2 - 0.0 - Partly cloudy 10 - - - -
04/04:00pm 25.3 SE 13 19 1013.4 - 0.0 - Partly cloudy 10 - - - -
04/03:30pm 26.9 SE 10 14 1012.8 - 0.0 - Partly cloudy 10 - - - -
04/03:00pm 28.3 SE 11 14 1012.4 - 0.0 - Cloudy 10 - - - -
04/02:30pm 29.4 ESE 10 13 1012.1 - 0.0 - Partly cloudy 10 - - - -
04/02:00pm 30.5 E 7 10 1012.1 - 0.0 - Partly cloudy 10 - - - -
04/01:30pm 30.3 ENE 5 7 1012.5 - 0.0 - - 10 - - - -
04/01:00pm 30.1 ESE 4 6 1013.1 - 0.0 - - 10 - - - -
04/12:30pm 29.6 N 4 7 1013.6 - 0.0 - - 10 - - - -
04/12:00pm 29.3 NNE 4 7 1014.0 - 0.0 - Mostly clear 10 - - - -
04/11:30am 28.9 NE 4 6 1014.4 - 0.0 - - 10 - - - -
04/11:00am 28.2 N 4 6 1015.0 - 0.0 - - 10 - - - -
04/10:30am 27.3 NNE 2 4 1015.3 - 0.0 - Partly cloudy 10 - - - -
04/10:00am 26.6 N 5 6 1015.7 - 0.0 - Partly cloudy 10 - - - -
04/09:30am 24.3 CALM 0 0 1015.9 - 0.0 - Partly cloudy 10 - - - -
04/09:00am 23.3 CALM 0 0 1016.2 - 0.0 - Mostly cloudy 10 - - - -
04/08:30am 22.7 CALM 0 0 1015.9 - 0.0 - - 10 - - - -
04/08:00am 22.3 NNE 3 5 1015.7 - 0.0 - - 10 - - - -
04/07:30am 22.0 N 3 6 1015.7 - 0.0 - Partly cloudy 10 - - - -
04/07:00am 21.7 CALM 0 5 1015.4 - 0.0 - Partly cloudy 10 - - - -
04/06:51am 21.1 CALM 0 0 1015.4 - 0.0 - Partly cloudy 10 - - - -
04/06:39am 20.7 CALM 0 0 1015.2 - 0.0 - Partly cloudy 2 - - - -
04/06:30am 20.7 CALM 0 0 1015.0 - 0.0 - Partly cloudy 0.8 - - - -
04/06:00am 20.8 CALM 0 0 1014.5 - 0.0 - Mostly cloudy 0.2 - - - -
04/05:30am 20.9 CALM 0 0 1014.0 - 0.0 - Cloudy 0.7 - - - -
04/05:24am 21.0 CALM 0 0 1014.0 - 0.0 - Partly cloudy 6 - - - -
04/05:17am 20.9 CALM 0 0 1014.1 - 0.0 - Partly cloudy 10 - - - -
04/05:03am 20.9 N 2 3 1014.0 - 0.0 - Cloudy 10 - - - -
04/05:00am 20.9 N 2 5 1014.0 - 0.0 - Cloudy 10 - - - -
04/04:36am 20.9 CALM 0 5 1013.7 - 0.0 - Cloudy 6 - - - -
04/04:30am 20.9 CALM 0 0 1013.9 - 0.0 - Cloudy 10 - - - -
04/04:00am 21.0 CALM 0 0 1013.8 - 0.0 - Cloudy 10 - - - -
04/03:30am 21.0 CALM 0 0 1013.6 - 0.0 - - 10 - - - -
04/03:00am 20.6 CALM 0 0 1013.5 - 0.0 - - 10 - - - -
04/02:57am 20.6 CALM 0 0 1013.4 - 0.0 - - 10 - - - -
04/02:35am 20.9 CALM 0 0 1013.8 - 0.0 - Partly cloudy 6 - - - -
04/02:30am 21.1 CALM 0 0 1013.7 - 0.0 - Partly cloudy 10 - - - -
04/02:11am 21.1 CALM 0 0 1013.8 - 0.0 - Partly cloudy 10 - - - -
04/02:01am 21.1 CALM 0 0 1013.9 - 0.0 - Partly cloudy 6 - - - -
04/02:00am 21.1 CALM 0 0 1013.9 - 0.0 - Partly cloudy 7 - - - -
04/01:30am 21.3 CALM 0 0 1013.8 - 0.0 - Partly cloudy 10 - - - -
04/01:21am 21.3 CALM 0 0 1013.9 - 0.0 - Partly cloudy 10 - - - -
04/01:06am 21.6 CALM 0 0 1014.0 - 0.0 - Partly cloudy 6 - - - -
04/01:00am 21.7 CALM 0 0 1014.1 - 0.0 - - 10 - - - -
04/12:48am 21.4 CALM 0 0 1014.1 - 0.0 - Partly cloudy 10 - - - -
04/12:32am 21.2 CALM 0 0 1014.3 - 0.0 - Partly cloudy 10 - - - -
04/12:30am 21.3 CALM 0 0 1014.3 - 0.0 - Partly cloudy 10 - - - -
04/12:00am 21.9 CALM 0 0 1014.5 - 0.0 - Mostly clear 10 - - - -
 
Date/Time
EST
Temp

°C
Wind Pressure Rain
since 9am
mm
Weather Cloud Vis
km
Sea
Height
m
Swell
Dir
 
Speed
knots
Gust
knots
hPa Trend Height
m
Period
s
Dir
03/11:30pm 22.2 CALM 0 0 1014.8 - 0.0 - Partly cloudy 10 - - - -
03/11:00pm 22.3 SSW 1 3 1014.9 - 0.0 - - 7 - - - -
03/10:55pm 22.3 CALM 0 3 1014.9 - 0.0 - - 8 - - - -
03/10:30pm 22.7 CALM 0 0 1014.7 - 0.0 - - 6 - - - -
03/10:22pm 22.6 CALM 0 0 1014.7 - 0.0 - - 6 - - - -
03/10:12pm 22.8 CALM 0 0 1014.7 - 0.0 - - 8 - - - -
03/10:00pm 23.1 CALM 0 0 1014.9 - 0.0 - - 6 - - - -
03/09:48pm 23.1 CALM 0 0 1015.1 - 0.0 - - 6 - - - -
03/09:39pm 23.2 CALM 0 0 1015.0 - 0.0 - - 9 - - - -
03/09:30pm 23.3 CALM 0 0 1015.1 - 0.0 - - 7 - - - -
03/09:27pm 23.2 CALM 0 3 1015.1 - 0.0 - - 6 - - - -
03/09:00pm 23.4 SSW 3 4 1015.1 - 0.0 - - 8 - - - -
03/08:30pm 23.8 CALM 0 0 1015.0 - 0.0 - Cloudy 8 - - - -
03/08:00pm 23.9 CALM 0 0 1014.6 - 0.0 - Cloudy 8 - - - -
03/07:30pm 24.1 CALM 0 0 1014.5 - 0.0 - Partly cloudy 7 - - - -
03/07:14pm 24.4 CALM 0 0 1014.2 - 0.0 - - 7 - - - -
03/07:01pm 24.6 CALM 0 0 1014.0 - 0.0 - - 6 - - - -
03/07:00pm 24.6 CALM 0 0 1013.9 - 0.0 - - 7 - - - -
03/06:30pm 25.1 N 2 4 1013.5 - 0.0 - Partly cloudy 10 - - - -
03/06:00pm 25.5 N 4 6 1013.1 - 0.0 - - 10 - - - -
03/05:30pm 26.4 ENE 4 7 1012.5 - 0.0 - - 10 - - - -
03/05:00pm 27.7 E 6 9 1011.9 - 0.0 - - 10 - - - -
03/04:30pm 27.5 E 7 10 1011.7 - 0.0 - - 10 - - - -
03/04:00pm 28.7 E 8 11 1011.5 - 0.0 - - 10 - - - -
03/03:30pm 29.3 E 8 11 1011.5 - 0.0 - - 10 - - - -
03/03:00pm 29.4 E 7 11 1011.4 - 0.0 - - 10 - - - -
03/02:30pm 29.8 NE 6 8 1011.4 - 0.0 - Partly cloudy 10 - - - -
03/02:00pm 30.1 ESE 3 7 1011.6 - 0.0 - - 10 - - - -
03/01:30pm 30.0 E 1 3 1012.1 - 0.0 - - 10 - - - -
03/01:00pm 29.5 NNE 3 5 1012.5 - 0.0 - - 10 - - - -
03/12:30pm 29.5 WNW 4 7 1013.0 - 0.0 - Partly cloudy 10 - - - -
03/12:00pm 29.4 N 5 7 1013.4 - 0.0 - Mostly clear 10 - - - -
03/11:30am 28.8 NNE 6 9 1013.8 - 0.0 - Partly cloudy 10 - - - -
03/11:00am 27.3 N 3 5 1014.5 - 0.0 - - 10 - - - -
03/10:30am 27.8 NNW 1 3 1015.0 - 0.0 - - 10 - - - -
03/10:00am 27.3 SE 3 5 1015.3 - 0.0 - - 10 - - - -
03/09:45am 26.6 N 1 3 1015.4 - 0.0 - Partly cloudy 10 - - - -
03/09:30am 26.6 S 1 4 1015.5 - 0.0 - Partly cloudy 10 - - - -
03/09:24am 26.3 NNE 2 4 1015.5 - 0.0 - Partly cloudy 10 - - - -
03/09:00am 25.2 CALM 0 3 1015.4 - 0.0 - - 10 - - - -
03/08:30am 24.4 NE 1 3 1015.3 - 0.0 - - 10 - - - -
03/08:00am 22.8 CALM 0 0 1015.2 - 0.0 - - 10 - - - -
03/07:30am 21.6 SW 2 4 1015.0 - 0.0 - - 10 - - - -
03/07:07am 20.7 CALM 0 0 1014.9 - 0.0 - - 10 - - - -
03/07:00am 20.7 CALM 0 0 1014.9 - 0.0 - Partly cloudy 10 - - - -
03/06:30am 19.7 CALM 0 0 1014.6 - 0.0 - - 0.6 - - - -
03/06:00am 19.9 WNW 1 3 1014.2 - 0.0 - Mostly clear 1 - - - -
03/05:38am 20.0 W 1 3 1014.0 - 0.0 - Partly cloudy 0.4 - - - -
03/05:30am 19.9 W 3 4 1013.9 - 0.0 - Partly cloudy 0.3 - - - -
03/05:00am 20.2 CALM 0 0 1013.8 - 0.0 - Partly cloudy 0.3 - - - -
03/04:30am 20.0 CALM 0 0 1013.7 - 0.0 - Partly cloudy 0.5 - - - -
03/04:08am 20.3 CALM 0 0 1013.5 - 0.0 - Partly cloudy 0.3 - - - -
03/04:00am 20.4 CALM 0 0 1013.6 - 0.0 - Partly cloudy 0.4 - - - -
03/03:59am 20.3 CALM 0 0 1013.7 - 0.0 - Partly cloudy 0.4 - - - -
03/03:30am 20.5 CALM 0 0 1013.9 - 0.0 - Partly cloudy 0.8 - - - -
03/03:27am 20.7 CALM 0 0 1013.9 - 0.0 - Partly cloudy 1 - - - -
03/03:00am 21.1 SSW 3 3 1013.8 - 0.0 - - 4 - - - -
03/02:30am 21.0 CALM 0 0 1013.9 - 0.0 - - 6 - - - -
03/02:00am 21.5 CALM 0 0 1013.9 - 0.0 - - 1 - - - -
03/01:56am 21.4 CALM 0 0 1014.0 - 0.0 - - 6 - - - -
03/01:30am 21.5 SW 1 4 1014.3 - 0.0 - - 9 - - - -
03/01:00am 21.9 CALM 0 0 1014.6 - 0.0 - - 8 - - - -
03/12:30am 22.1 SW 3 4 1014.7 - 0.0 - - 8 - - - -

Other Formats:

Comma delimited format used in spreadsheet applications
http://www.bom.gov.au/fwo/IDQ60701/IDQ60701.94365.axf

JavaScript Object Notation format (JSON) in row-major order
http://www.bom.gov.au/fwo/IDQ60701/IDQ60701.94365.json